This is the latest recevied weather packets stored in our database for station/object 9M4GEK-3. If no packets are shown the sender has not sent any weather packets the latest 10 day(s).
| Time | Temp. | Humidity | Pressure | Rain* | Wind** | Luminosity | Snow |
|---|---|---|---|---|---|---|---|
| 1778302684 | 39.44° C | 39% | 1008.2 hPa | - | - | - | - |
| 1778302180 | 41.67° C | 35% | 1008.5 hPa | - | - | - | - |
| 1778301784 | 41.67° C | 35% | 1008.5 hPa | - | - | - | - |
| 1778301053 | 42.78° C | 35% | 1008.7 hPa | - | - | - | - |
| 1778300884 | 42.78° C | 35% | 1008.7 hPa | - | - | - | - |
| 1778300359 | 42.78° C | 36% | 1008.9 hPa | - | - | - | - |
| 1778299983 | 42.78° C | 36% | 1008.9 hPa | - | - | - | - |
| 1778299083 | 41.67° C | 38% | 1008.8 hPa | - | - | - | - |
| 1778298183 | 41.11° C | 40% | 1008.9 hPa | - | - | - | - |
| 1778297283 | 41.67° C | 41% | 1009 hPa | - | - | - | - |
| 1778296543 | 38.33° C | 46% | 1009.3 hPa | - | - | - | - |
| 1778296383 | 40° C | 44% | 1009.2 hPa | - | - | - | - |
| 1778295483 | 38.33° C | 46% | 1009.3 hPa | - | - | - | - |
| 1778295475 | 36.67° C | 49% | 1009.3 hPa | - | - | - | - |
| 1778294583 | 36.67° C | 49% | 1009.3 hPa | - | - | - | - |
| 1778293683 | 36.11° C | 52% | 1009.4 hPa | - | - | - | - |
| 1778292782 | 36.67° C | 52% | 1009.4 hPa | - | - | - | - |
| 1778291918 | 35.56° C | 57% | 1009.5 hPa | - | - | - | - |
| 1778291882 | 35.56° C | 57% | 1009.5 hPa | - | - | - | - |
| 1778291217 | 34.44° C | 59% | 1009.4 hPa | - | - | - | - |
| 1778290982 | 34.44° C | 59% | 1009.4 hPa | - | - | - | - |
| 1778290156 | 33.89° C | 61% | 1009.3 hPa | - | - | - | - |
| 1778290082 | 33.89° C | 61% | 1009.3 hPa | - | - | - | - |
| 1778289183 | 31.67° C | 66% | 1009.4 hPa | - | - | - | - |
| 1778288282 | 30.56° C | 69% | 1009.2 hPa | - | - | - | - |
* Rain since midnight (hover to see other rain measurements)
** Current wind speed in m/s (hover to see current wind gust speed)